sensor_id;sensor_type;location;lat;lon;timestamp;P1;durP1;ratioP1;P2;durP2;ratioP2
72198;SDS011;60103;51.014;16.992;2022-10-16T00:01:23;10.30;;;4.40;;
72198;SDS011;60103;51.014;16.992;2022-10-16T00:03:51;9.50;;;4.50;;
72198;SDS011;60103;51.014;16.992;2022-10-16T00:06:20;9.60;;;4.40;;
72198;SDS011;60103;51.014;16.992;2022-10-16T00:08:48;9.30;;;4.30;;
72198;SDS011;60103;51.014;16.992;2022-10-16T00:11:20;9.30;;;4.40;;
72198;SDS011;60103;51.014;16.992;2022-10-16T00:13:57;11.10;;;4.90;;
72198;SDS011;60103;51.014;16.992;2022-10-16T00:16:25;10.20;;;4.30;;
72198;SDS011;60103;51.014;16.992;2022-10-16T00:18:54;10.80;;;4.50;;
72198;SDS011;60103;51.014;16.992;2022-10-16T00:21:23;10.60;;;4.70;;
72198;SDS011;60103;51.014;16.992;2022-10-16T00:23:52;10.10;;;4.00;;
72198;SDS011;60103;51.014;16.992;2022-10-16T00:26:21;10.60;;;4.90;;
72198;SDS011;60103;51.014;16.992;2022-10-16T00:28:49;10.10;;;4.70;;
72198;SDS011;60103;51.014;16.992;2022-10-16T00:31:17;11.40;;;4.80;;
72198;SDS011;60103;51.014;16.992;2022-10-16T00:33:46;9.40;;;4.40;;
72198;SDS011;60103;51.014;16.992;2022-10-16T00:36:15;10.90;;;4.90;;
72198;SDS011;60103;51.014;16.992;2022-10-16T00:38:45;11.40;;;5.10;;
72198;SDS011;60103;51.014;16.992;2022-10-16T00:41:14;11.70;;;4.80;;
72198;SDS011;60103;51.014;16.992;2022-10-16T00:46:17;11.20;;;5.00;;
72198;SDS011;60103;51.014;16.992;2022-10-16T00:48:52;12.10;;;5.20;;
72198;SDS011;60103;51.014;16.992;2022-10-16T00:51:33;12.50;;;5.70;;
72198;SDS011;60103;51.014;16.992;2022-10-16T00:54:07;10.80;;;5.20;;
72198;SDS011;60103;51.014;16.992;2022-10-16T00:56:43;11.60;;;4.80;;
72198;SDS011;60103;51.014;16.992;2022-10-16T00:59:15;12.20;;;5.30;;
72198;SDS011;60103;51.014;16.992;2022-10-16T01:01:45;11.60;;;5.10;;
72198;SDS011;60103;51.014;16.992;2022-10-16T01:04:12;13.00;;;5.90;;
72198;SDS011;60103;51.014;16.992;2022-10-16T01:09:14;13.80;;;5.60;;
72198;SDS011;60103;51.014;16.992;2022-10-16T01:14:22;11.30;;;5.50;;
72198;SDS011;60103;51.014;16.992;2022-10-16T01:16:55;10.20;;;4.80;;
72198;SDS011;60103;51.014;16.992;2022-10-16T01:19:40;11.00;;;5.00;;
72198;SDS011;60103;51.014;16.992;2022-10-16T01:22:37;10.30;;;3.90;;
72198;SDS011;60103;51.014;16.992;2022-10-16T01:25:09;11.50;;;5.00;;
72198;SDS011;60103;51.014;16.992;2022-10-16T01:27:39;11.70;;;5.10;;
72198;SDS011;60103;51.014;16.992;2022-10-16T01:30:26;11.70;;;4.90;;
72198;SDS011;60103;51.014;16.992;2022-10-16T01:32:57;12.20;;;5.30;;
72198;SDS011;60103;51.014;16.992;2022-10-16T01:40:28;12.80;;;5.60;;
72198;SDS011;60103;51.014;16.992;2022-10-16T01:42:59;10.40;;;5.00;;
72198;SDS011;60103;51.014;16.992;2022-10-16T01:45:30;10.50;;;4.70;;
72198;SDS011;60103;51.014;16.992;2022-10-16T01:47:59;11.60;;;4.80;;
72198;SDS011;60103;51.014;16.992;2022-10-16T01:50:35;11.10;;;5.30;;
72198;SDS011;60103;51.014;16.992;2022-10-16T01:53:05;11.40;;;5.00;;
72198;SDS011;60103;51.014;16.992;2022-10-16T01:55:35;9.70;;;4.50;;
72198;SDS011;60103;51.014;16.992;2022-10-16T01:58:05;12.00;;;5.00;;
72198;SDS011;60103;51.014;16.992;2022-10-16T02:00:34;10.50;;;5.00;;
72198;SDS011;60103;51.014;16.992;2022-10-16T02:03:04;10.50;;;4.60;;
72198;SDS011;60103;51.014;16.992;2022-10-16T02:06:06;11.90;;;5.30;;
72198;SDS011;60103;51.014;16.992;2022-10-16T02:08:28;11.10;;;5.20;;
72198;SDS011;60103;51.014;16.992;2022-10-16T02:10:57;12.00;;;5.90;;
72198;SDS011;60103;51.014;16.992;2022-10-16T02:13:36;11.00;;;5.20;;
72198;SDS011;60103;51.014;16.992;2022-10-16T02:16:06;12.20;;;5.10;;
72198;SDS011;60103;51.014;16.992;2022-10-16T02:18:34;13.30;;;6.00;;
72198;SDS011;60103;51.014;16.992;2022-10-16T02:23:37;12.70;;;5.60;;
72198;SDS011;60103;51.014;16.992;2022-10-16T02:26:19;11.30;;;5.50;;
72198;SDS011;60103;51.014;16.992;2022-10-16T02:28:54;11.60;;;5.60;;
72198;SDS011;60103;51.014;16.992;2022-10-16T02:31:24;12.70;;;5.50;;
72198;SDS011;60103;51.014;16.992;2022-10-16T02:33:56;12.90;;;6.30;;
72198;SDS011;60103;51.014;16.992;2022-10-16T02:36:25;13.60;;;6.80;;
72198;SDS011;60103;51.014;16.992;2022-10-16T02:38:53;12.30;;;5.50;;
72198;SDS011;60103;51.014;16.992;2022-10-16T02:41:21;12.40;;;6.00;;
72198;SDS011;60103;51.014;16.992;2022-10-16T02:43:50;11.30;;;5.80;;
72198;SDS011;60103;51.014;16.992;2022-10-16T02:46:17;12.40;;;6.10;;
72198;SDS011;60103;51.014;16.992;2022-10-16T02:48:45;11.60;;;5.80;;
72198;SDS011;60103;51.014;16.992;2022-10-16T02:51:13;13.10;;;6.50;;
72198;SDS011;60103;51.014;16.992;2022-10-16T02:53:40;11.30;;;5.90;;
72198;SDS011;60103;51.014;16.992;2022-10-16T02:56:08;12.00;;;6.10;;
72198;SDS011;60103;51.014;16.992;2022-10-16T02:58:35;12.00;;;5.80;;
72198;SDS011;60103;51.014;16.992;2022-10-16T03:01:03;11.00;;;5.20;;
72198;SDS011;60103;51.014;16.992;2022-10-16T03:03:31;12.10;;;6.00;;
72198;SDS011;60103;51.014;16.992;2022-10-16T03:05:58;11.90;;;5.70;;
72198;SDS011;60103;51.014;16.992;2022-10-16T03:08:25;13.00;;;5.70;;
72198;SDS011;60103;51.014;16.992;2022-10-16T03:10:52;11.20;;;5.50;;
72198;SDS011;60103;51.014;16.992;2022-10-16T03:13:19;12.30;;;5.40;;
72198;SDS011;60103;51.014;16.992;2022-10-16T03:15:47;11.60;;;5.10;;
72198;SDS011;60103;51.014;16.992;2022-10-16T03:18:15;12.90;;;6.40;;
72198;SDS011;60103;51.014;16.992;2022-10-16T03:20:42;12.10;;;5.30;;
72198;SDS011;60103;51.014;16.992;2022-10-16T03:23:10;11.60;;;5.40;;
72198;SDS011;60103;51.014;16.992;2022-10-16T03:25:38;11.40;;;5.10;;
72198;SDS011;60103;51.014;16.992;2022-10-16T03:28:06;13.30;;;5.50;;
72198;SDS011;60103;51.014;16.992;2022-10-16T03:30:33;11.80;;;5.50;;
72198;SDS011;60103;51.014;16.992;2022-10-16T03:33:00;11.80;;;6.00;;
72198;SDS011;60103;51.014;16.992;2022-10-16T03:35:27;10.90;;;5.40;;
72198;SDS011;60103;51.014;16.992;2022-10-16T03:37:54;10.40;;;5.00;;
72198;SDS011;60103;51.014;16.992;2022-10-16T03:40:23;11.30;;;5.60;;
72198;SDS011;60103;51.014;16.992;2022-10-16T03:42:50;12.10;;;5.30;;
72198;SDS011;60103;51.014;16.992;2022-10-16T03:45:17;11.50;;;5.60;;
72198;SDS011;60103;51.014;16.992;2022-10-16T03:47:45;11.60;;;6.10;;
72198;SDS011;60103;51.014;16.992;2022-10-16T03:50:12;10.40;;;5.10;;
72198;SDS011;60103;51.014;16.992;2022-10-16T03:52:40;12.00;;;5.20;;
72198;SDS011;60103;51.014;16.992;2022-10-16T03:55:07;10.90;;;5.50;;
72198;SDS011;60103;51.014;16.992;2022-10-16T03:57:35;12.00;;;5.70;;
72198;SDS011;60103;51.014;16.992;2022-10-16T04:00:02;11.00;;;5.10;;
72198;SDS011;60103;51.014;16.992;2022-10-16T04:02:37;10.00;;;4.60;;
72198;SDS011;60103;51.014;16.992;2022-10-16T04:05:05;9.70;;;4.40;;
72198;SDS011;60103;51.014;16.992;2022-10-16T04:07:32;10.10;;;4.80;;
72198;SDS011;60103;51.014;16.992;2022-10-16T04:10:00;10.20;;;4.70;;
72198;SDS011;60103;51.014;16.992;2022-10-16T04:12:27;10.10;;;4.30;;
72198;SDS011;60103;51.014;16.992;2022-10-16T04:14:54;10.20;;;4.90;;
72198;SDS011;60103;51.014;16.992;2022-10-16T04:17:21;9.40;;;4.40;;
72198;SDS011;60103;51.014;16.992;2022-10-16T04:19:49;9.40;;;4.20;;
72198;SDS011;60103;51.014;16.992;2022-10-16T04:22:17;9.80;;;4.50;;
72198;SDS011;60103;51.014;16.992;2022-10-16T04:24:44;9.80;;;4.80;;
72198;SDS011;60103;51.014;16.992;2022-10-16T04:27:11;9.50;;;4.70;;
72198;SDS011;60103;51.014;16.992;2022-10-16T04:29:39;10.30;;;5.30;;
72198;SDS011;60103;51.014;16.992;2022-10-16T04:32:07;10.70;;;4.90;;
72198;SDS011;60103;51.014;16.992;2022-10-16T04:34:35;10.10;;;4.90;;
72198;SDS011;60103;51.014;16.992;2022-10-16T04:37:03;10.50;;;4.80;;
72198;SDS011;60103;51.014;16.992;2022-10-16T04:39:30;10.10;;;5.00;;
72198;SDS011;60103;51.014;16.992;2022-10-16T04:41:58;10.50;;;5.10;;
72198;SDS011;60103;51.014;16.992;2022-10-16T04:44:25;11.40;;;5.20;;
72198;SDS011;60103;51.014;16.992;2022-10-16T04:46:52;13.40;;;5.60;;
72198;SDS011;60103;51.014;16.992;2022-10-16T04:49:19;11.70;;;5.80;;
72198;SDS011;60103;51.014;16.992;2022-10-16T04:51:47;12.30;;;5.70;;
72198;SDS011;60103;51.014;16.992;2022-10-16T04:54:14;12.60;;;5.80;;
72198;SDS011;60103;51.014;16.992;2022-10-16T04:56:41;13.40;;;6.10;;
72198;SDS011;60103;51.014;16.992;2022-10-16T04:59:14;12.70;;;6.40;;
72198;SDS011;60103;51.014;16.992;2022-10-16T05:01:42;11.40;;;5.40;;
72198;SDS011;60103;51.014;16.992;2022-10-16T05:04:10;11.90;;;5.50;;
72198;SDS011;60103;51.014;16.992;2022-10-16T05:06:38;12.70;;;6.20;;
72198;SDS011;60103;51.014;16.992;2022-10-16T05:09:05;12.00;;;6.10;;
72198;SDS011;60103;51.014;16.992;2022-10-16T05:11:33;13.30;;;6.50;;
72198;SDS011;60103;51.014;16.992;2022-10-16T05:14:00;13.50;;;6.20;;
72198;SDS011;60103;51.014;16.992;2022-10-16T05:16:28;13.00;;;5.80;;
72198;SDS011;60103;51.014;16.992;2022-10-16T05:18:57;12.60;;;6.10;;
72198;SDS011;60103;51.014;16.992;2022-10-16T05:21:44;13.60;;;6.50;;
72198;SDS011;60103;51.014;16.992;2022-10-16T05:24:11;12.80;;;5.90;;
72198;SDS011;60103;51.014;16.992;2022-10-16T05:26:39;14.60;;;6.00;;
72198;SDS011;60103;51.014;16.992;2022-10-16T05:29:06;12.00;;;6.00;;
72198;SDS011;60103;51.014;16.992;2022-10-16T05:31:33;11.00;;;5.00;;
72198;SDS011;60103;51.014;16.992;2022-10-16T05:34:01;11.70;;;5.60;;
72198;SDS011;60103;51.014;16.992;2022-10-16T05:36:29;11.70;;;5.40;;
72198;SDS011;60103;51.014;16.992;2022-10-16T05:38:57;10.80;;;5.00;;
72198;SDS011;60103;51.014;16.992;2022-10-16T05:41:24;10.60;;;5.50;;
72198;SDS011;60103;51.014;16.992;2022-10-16T05:43:53;12.60;;;6.00;;
72198;SDS011;60103;51.014;16.992;2022-10-16T05:46:20;10.40;;;4.90;;
72198;SDS011;60103;51.014;16.992;2022-10-16T05:48:48;10.50;;;4.60;;
72198;SDS011;60103;51.014;16.992;2022-10-16T05:51:15;10.80;;;5.10;;
72198;SDS011;60103;51.014;16.992;2022-10-16T05:53:43;11.80;;;4.70;;
72198;SDS011;60103;51.014;16.992;2022-10-16T05:56:15;10.60;;;4.40;;
72198;SDS011;60103;51.014;16.992;2022-10-16T05:58:43;9.30;;;4.00;;
72198;SDS011;60103;51.014;16.992;2022-10-16T06:01:14;10.00;;;4.60;;
72198;SDS011;60103;51.014;16.992;2022-10-16T06:03:46;10.00;;;4.30;;
72198;SDS011;60103;51.014;16.992;2022-10-16T06:06:14;10.00;;;4.60;;
72198;SDS011;60103;51.014;16.992;2022-10-16T06:08:43;9.70;;;4.40;;
72198;SDS011;60103;51.014;16.992;2022-10-16T06:11:13;9.10;;;3.90;;
72198;SDS011;60103;51.014;16.992;2022-10-16T06:13:43;9.20;;;4.00;;
72198;SDS011;60103;51.014;16.992;2022-10-16T06:16:12;10.20;;;4.40;;
72198;SDS011;60103;51.014;16.992;2022-10-16T06:18:39;9.40;;;3.90;;
72198;SDS011;60103;51.014;16.992;2022-10-16T06:21:08;9.60;;;3.70;;
72198;SDS011;60103;51.014;16.992;2022-10-16T06:23:40;8.70;;;3.60;;
72198;SDS011;60103;51.014;16.992;2022-10-16T06:26:09;9.70;;;3.70;;
72198;SDS011;60103;51.014;16.992;2022-10-16T06:28:38;8.90;;;3.60;;
72198;SDS011;60103;51.014;16.992;2022-10-16T06:31:07;11.00;;;3.70;;
72198;SDS011;60103;51.014;16.992;2022-10-16T06:33:38;8.70;;;3.60;;
72198;SDS011;60103;51.014;16.992;2022-10-16T06:38:35;8.50;;;3.80;;
72198;SDS011;60103;51.014;16.992;2022-10-16T06:41:03;7.90;;;3.20;;
72198;SDS011;60103;51.014;16.992;2022-10-16T06:43:31;9.00;;;3.60;;
72198;SDS011;60103;51.014;16.992;2022-10-16T06:46:02;8.50;;;3.30;;
72198;SDS011;60103;51.014;16.992;2022-10-16T06:48:31;8.80;;;3.90;;
72198;SDS011;60103;51.014;16.992;2022-10-16T06:51:15;8.20;;;3.40;;
72198;SDS011;60103;51.014;16.992;2022-10-16T06:53:44;8.70;;;3.60;;
72198;SDS011;60103;51.014;16.992;2022-10-16T06:56:32;7.30;;;2.70;;
72198;SDS011;60103;51.014;16.992;2022-10-16T06:59:01;9.10;;;3.00;;
72198;SDS011;60103;51.014;16.992;2022-10-16T07:01:38;6.90;;;2.40;;
72198;SDS011;60103;51.014;16.992;2022-10-16T07:04:09;7.20;;;2.90;;
72198;SDS011;60103;51.014;16.992;2022-10-16T07:06:38;7.40;;;2.90;;
72198;SDS011;60103;51.014;16.992;2022-10-16T07:09:13;7.90;;;3.10;;
72198;SDS011;60103;51.014;16.992;2022-10-16T07:11:42;9.20;;;3.40;;
72198;SDS011;60103;51.014;16.992;2022-10-16T07:14:16;9.10;;;3.60;;
72198;SDS011;60103;51.014;16.992;2022-10-16T07:16:48;7.70;;;3.20;;
72198;SDS011;60103;51.014;16.992;2022-10-16T07:19:15;8.20;;;2.90;;
72198;SDS011;60103;51.014;16.992;2022-10-16T07:21:44;7.60;;;3.10;;
72198;SDS011;60103;51.014;16.992;2022-10-16T07:24:13;7.10;;;3.00;;
72198;SDS011;60103;51.014;16.992;2022-10-16T07:26:44;7.70;;;3.10;;
72198;SDS011;60103;51.014;16.992;2022-10-16T07:29:16;7.10;;;2.60;;
72198;SDS011;60103;51.014;16.992;2022-10-16T07:31:50;7.90;;;2.80;;
72198;SDS011;60103;51.014;16.992;2022-10-16T07:34:20;9.30;;;2.70;;
72198;SDS011;60103;51.014;16.992;2022-10-16T07:36:50;6.80;;;2.40;;
72198;SDS011;60103;51.014;16.992;2022-10-16T07:39:20;7.40;;;2.80;;
72198;SDS011;60103;51.014;16.992;2022-10-16T07:41:50;7.70;;;2.60;;
72198;SDS011;60103;51.014;16.992;2022-10-16T07:44:22;6.80;;;2.50;;
72198;SDS011;60103;51.014;16.992;2022-10-16T07:46:49;7.10;;;2.40;;
72198;SDS011;60103;51.014;16.992;2022-10-16T07:49:17;7.40;;;2.60;;
72198;SDS011;60103;51.014;16.992;2022-10-16T07:51:45;6.90;;;2.40;;
72198;SDS011;60103;51.014;16.992;2022-10-16T07:54:12;8.60;;;2.60;;
72198;SDS011;60103;51.014;16.992;2022-10-16T07:56:42;7.10;;;2.60;;
72198;SDS011;60103;51.014;16.992;2022-10-16T07:59:10;7.10;;;2.80;;
72198;SDS011;60103;51.014;16.992;2022-10-16T08:01:37;7.00;;;2.90;;
72198;SDS011;60103;51.014;16.992;2022-10-16T08:04:05;5.90;;;2.00;;
72198;SDS011;60103;51.014;16.992;2022-10-16T08:06:35;7.10;;;2.60;;
72198;SDS011;60103;51.014;16.992;2022-10-16T08:09:03;7.80;;;2.70;;
72198;SDS011;60103;51.014;16.992;2022-10-16T08:11:34;7.10;;;2.70;;
72198;SDS011;60103;51.014;16.992;2022-10-16T08:14:06;8.80;;;2.70;;
72198;SDS011;60103;51.014;16.992;2022-10-16T08:16:43;7.00;;;2.30;;
72198;SDS011;60103;51.014;16.992;2022-10-16T08:19:16;7.20;;;2.20;;
72198;SDS011;60103;51.014;16.992;2022-10-16T08:22:01;9.20;;;2.90;;
72198;SDS011;60103;51.014;16.992;2022-10-16T08:24:32;9.10;;;2.60;;
72198;SDS011;60103;51.014;16.992;2022-10-16T08:27:03;6.60;;;2.20;;
72198;SDS011;60103;51.014;16.992;2022-10-16T08:29:31;7.00;;;2.30;;
72198;SDS011;60103;51.014;16.992;2022-10-16T08:32:06;7.00;;;2.70;;
72198;SDS011;60103;51.014;16.992;2022-10-16T08:34:39;7.40;;;2.70;;
72198;SDS011;60103;51.014;16.992;2022-10-16T08:37:08;6.90;;;2.50;;
72198;SDS011;60103;51.014;16.992;2022-10-16T08:39:39;7.40;;;2.50;;
72198;SDS011;60103;51.014;16.992;2022-10-16T08:42:11;9.00;;;2.90;;
72198;SDS011;60103;51.014;16.992;2022-10-16T08:45:24;7.50;;;2.50;;
72198;SDS011;60103;51.014;16.992;2022-10-16T08:50:33;6.90;;;2.50;;
72198;SDS011;60103;51.014;16.992;2022-10-16T08:53:07;7.20;;;2.40;;
72198;SDS011;60103;51.014;16.992;2022-10-16T08:55:45;7.10;;;2.80;;
72198;SDS011;60103;51.014;16.992;2022-10-16T08:58:22;6.90;;;2.50;;
72198;SDS011;60103;51.014;16.992;2022-10-16T09:01:03;7.00;;;2.60;;
72198;SDS011;60103;51.014;16.992;2022-10-16T09:04:00;8.20;;;2.50;;
72198;SDS011;60103;51.014;16.992;2022-10-16T09:12:14;7.20;;;2.60;;
72198;SDS011;60103;51.014;16.992;2022-10-16T09:26:05;6.30;;;2.00;;
72198;SDS011;60103;51.014;16.992;2022-10-16T09:28:41;6.70;;;2.00;;
72198;SDS011;60103;51.014;16.992;2022-10-16T09:31:12;6.30;;;2.20;;
72198;SDS011;60103;51.014;16.992;2022-10-16T09:34:00;6.00;;;2.30;;
72198;SDS011;60103;51.014;16.992;2022-10-16T09:36:35;6.50;;;2.20;;
72198;SDS011;60103;51.014;16.992;2022-10-16T09:39:09;6.30;;;1.90;;
72198;SDS011;60103;51.014;16.992;2022-10-16T09:41:39;6.60;;;2.30;;
72198;SDS011;60103;51.014;16.992;2022-10-16T09:44:19;6.80;;;2.50;;
72198;SDS011;60103;51.014;16.992;2022-10-16T09:47:00;6.30;;;2.30;;
72198;SDS011;60103;51.014;16.992;2022-10-16T09:49:28;8.50;;;2.60;;
72198;SDS011;60103;51.014;16.992;2022-10-16T09:52:09;6.20;;;2.10;;
72198;SDS011;60103;51.014;16.992;2022-10-16T09:54:48;6.40;;;2.40;;
72198;SDS011;60103;51.014;16.992;2022-10-16T09:57:26;7.10;;;2.30;;
72198;SDS011;60103;51.014;16.992;2022-10-16T09:59:56;6.70;;;2.10;;
72198;SDS011;60103;51.014;16.992;2022-10-16T10:02:33;7.00;;;2.00;;
72198;SDS011;60103;51.014;16.992;2022-10-16T10:05:02;5.30;;;1.80;;
72198;SDS011;60103;51.014;16.992;2022-10-16T10:07:39;6.80;;;2.40;;
72198;SDS011;60103;51.014;16.992;2022-10-16T10:10:19;6.10;;;2.10;;
72198;SDS011;60103;51.014;16.992;2022-10-16T10:12:51;6.10;;;2.10;;
72198;SDS011;60103;51.014;16.992;2022-10-16T10:15:19;6.60;;;2.10;;
72198;SDS011;60103;51.014;16.992;2022-10-16T10:17:53;6.10;;;2.10;;
72198;SDS011;60103;51.014;16.992;2022-10-16T10:20:23;6.90;;;2.30;;
72198;SDS011;60103;51.014;16.992;2022-10-16T10:22:56;6.90;;;2.20;;
72198;SDS011;60103;51.014;16.992;2022-10-16T10:31:03;5.10;;;1.70;;
72198;SDS011;60103;51.014;16.992;2022-10-16T10:38:53;5.00;;;1.40;;
72198;SDS011;60103;51.014;16.992;2022-10-16T10:46:53;6.30;;;1.80;;
72198;SDS011;60103;51.014;16.992;2022-10-16T10:52:33;6.40;;;1.60;;
72198;SDS011;60103;51.014;16.992;2022-10-16T10:58:29;5.00;;;1.40;;
72198;SDS011;60103;51.014;16.992;2022-10-16T11:07:09;6.00;;;1.90;;
72198;SDS011;60103;51.014;16.992;2022-10-16T11:10:05;7.30;;;2.10;;
72198;SDS011;60103;51.014;16.992;2022-10-16T11:12:47;7.60;;;1.80;;
72198;SDS011;60103;51.014;16.992;2022-10-16T11:15:32;5.90;;;1.70;;
72198;SDS011;60103;51.014;16.992;2022-10-16T11:18:05;6.20;;;1.80;;
72198;SDS011;60103;51.014;16.992;2022-10-16T11:20:40;5.90;;;1.90;;
72198;SDS011;60103;51.014;16.992;2022-10-16T11:23:16;8.10;;;2.40;;
72198;SDS011;60103;51.014;16.992;2022-10-16T11:25:51;8.00;;;2.90;;
72198;SDS011;60103;51.014;16.992;2022-10-16T11:28:41;8.20;;;3.40;;
72198;SDS011;60103;51.014;16.992;2022-10-16T11:39:21;7.90;;;3.10;;
72198;SDS011;60103;51.014;16.992;2022-10-16T11:47:12;7.70;;;2.90;;
72198;SDS011;60103;51.014;16.992;2022-10-16T11:56:03;8.30;;;3.10;;
72198;SDS011;60103;51.014;16.992;2022-10-16T12:01:43;8.00;;;3.00;;
72198;SDS011;60103;51.014;16.992;2022-10-16T12:09:37;7.30;;;2.80;;
72198;SDS011;60103;51.014;16.992;2022-10-16T12:12:25;7.70;;;3.40;;
72198;SDS011;60103;51.014;16.992;2022-10-16T12:15:15;7.90;;;2.90;;
72198;SDS011;60103;51.014;16.992;2022-10-16T12:18:31;7.80;;;3.20;;
72198;SDS011;60103;51.014;16.992;2022-10-16T12:20:58;8.70;;;3.00;;
72198;SDS011;60103;51.014;16.992;2022-10-16T12:23:36;8.40;;;3.40;;
72198;SDS011;60103;51.014;16.992;2022-10-16T12:26:05;9.60;;;4.40;;
72198;SDS011;60103;51.014;16.992;2022-10-16T12:28:33;9.10;;;4.10;;
72198;SDS011;60103;51.014;16.992;2022-10-16T12:31:01;9.20;;;4.10;;
72198;SDS011;60103;51.014;16.992;2022-10-16T12:33:32;11.50;;;4.60;;
72198;SDS011;60103;51.014;16.992;2022-10-16T12:36:05;9.90;;;4.60;;
72198;SDS011;60103;51.014;16.992;2022-10-16T12:38:47;9.40;;;4.50;;
72198;SDS011;60103;51.014;16.992;2022-10-16T12:44:00;10.40;;;4.80;;
72198;SDS011;60103;51.014;16.992;2022-10-16T12:51:46;10.00;;;4.70;;
72198;SDS011;60103;51.014;16.992;2022-10-16T12:54:17;10.30;;;5.20;;
72198;SDS011;60103;51.014;16.992;2022-10-16T12:59:59;10.10;;;4.60;;
72198;SDS011;60103;51.014;16.992;2022-10-16T13:05:26;12.60;;;4.50;;
72198;SDS011;60103;51.014;16.992;2022-10-16T13:14:15;9.80;;;4.60;;
72198;SDS011;60103;51.014;16.992;2022-10-16T13:28:03;9.40;;;4.60;;
72198;SDS011;60103;51.014;16.992;2022-10-16T13:33:14;9.20;;;4.40;;
72198;SDS011;60103;51.014;16.992;2022-10-16T13:35:54;9.20;;;4.40;;
72198;SDS011;60103;51.014;16.992;2022-10-16T13:38:26;9.20;;;4.40;;
72198;SDS011;60103;51.014;16.992;2022-10-16T13:41:04;9.80;;;4.40;;
72198;SDS011;60103;51.014;16.992;2022-10-16T13:43:34;11.70;;;3.90;;
72198;SDS011;60103;51.014;16.992;2022-10-16T13:46:12;9.70;;;3.40;;
72198;SDS011;60103;51.014;16.992;2022-10-16T13:48:42;9.70;;;3.50;;
72198;SDS011;60103;51.014;16.992;2022-10-16T13:51:16;8.10;;;3.10;;
72198;SDS011;60103;51.014;16.992;2022-10-16T13:53:45;7.40;;;3.10;;
72198;SDS011;60103;51.014;16.992;2022-10-16T13:56:14;8.70;;;2.80;;
72198;SDS011;60103;51.014;16.992;2022-10-16T13:59:01;7.50;;;2.80;;
72198;SDS011;60103;51.014;16.992;2022-10-16T14:01:31;8.00;;;2.80;;
72198;SDS011;60103;51.014;16.992;2022-10-16T14:04:12;6.80;;;2.70;;
72198;SDS011;60103;51.014;16.992;2022-10-16T14:06:59;7.70;;;2.80;;
72198;SDS011;60103;51.014;16.992;2022-10-16T14:09:31;7.60;;;3.00;;
72198;SDS011;60103;51.014;16.992;2022-10-16T14:12:03;6.80;;;2.60;;
72198;SDS011;60103;51.014;16.992;2022-10-16T14:14:35;6.60;;;2.40;;
72198;SDS011;60103;51.014;16.992;2022-10-16T14:17:15;7.30;;;2.70;;
72198;SDS011;60103;51.014;16.992;2022-10-16T14:19:47;8.00;;;2.70;;
72198;SDS011;60103;51.014;16.992;2022-10-16T14:22:34;6.80;;;2.50;;
72198;SDS011;60103;51.014;16.992;2022-10-16T14:27:57;7.30;;;2.90;;
72198;SDS011;60103;51.014;16.992;2022-10-16T14:30:30;11.10;;;2.80;;
72198;SDS011;60103;51.014;16.992;2022-10-16T14:33:05;7.30;;;3.20;;
72198;SDS011;60103;51.014;16.992;2022-10-16T14:35:56;7.00;;;2.90;;
72198;SDS011;60103;51.014;16.992;2022-10-16T14:38:57;7.20;;;2.80;;
72198;SDS011;60103;51.014;16.992;2022-10-16T14:41:35;7.70;;;3.00;;
72198;SDS011;60103;51.014;16.992;2022-10-16T14:44:09;7.10;;;3.20;;
72198;SDS011;60103;51.014;16.992;2022-10-16T14:46:38;6.90;;;2.80;;
72198;SDS011;60103;51.014;16.992;2022-10-16T14:51:38;8.10;;;3.40;;
72198;SDS011;60103;51.014;16.992;2022-10-16T14:54:13;7.60;;;3.10;;
72198;SDS011;60103;51.014;16.992;2022-10-16T14:59:14;8.00;;;3.50;;
72198;SDS011;60103;51.014;16.992;2022-10-16T15:01:47;8.40;;;3.60;;
72198;SDS011;60103;51.014;16.992;2022-10-16T15:04:29;7.80;;;3.50;;
72198;SDS011;60103;51.014;16.992;2022-10-16T15:06:56;8.10;;;3.90;;
72198;SDS011;60103;51.014;16.992;2022-10-16T15:09:26;8.20;;;3.80;;
72198;SDS011;60103;51.014;16.992;2022-10-16T15:11:53;9.00;;;3.90;;
72198;SDS011;60103;51.014;16.992;2022-10-16T15:14:21;10.10;;;4.20;;
72198;SDS011;60103;51.014;16.992;2022-10-16T15:16:52;9.60;;;4.20;;
72198;SDS011;60103;51.014;16.992;2022-10-16T15:19:19;8.70;;;4.30;;
72198;SDS011;60103;51.014;16.992;2022-10-16T15:21:50;8.60;;;4.00;;
72198;SDS011;60103;51.014;16.992;2022-10-16T15:24:19;8.80;;;4.10;;
72198;SDS011;60103;51.014;16.992;2022-10-16T15:26:47;9.50;;;4.30;;
72198;SDS011;60103;51.014;16.992;2022-10-16T15:29:20;9.10;;;4.30;;
72198;SDS011;60103;51.014;16.992;2022-10-16T15:31:47;11.40;;;4.60;;
72198;SDS011;60103;51.014;16.992;2022-10-16T15:34:17;10.50;;;4.50;;
72198;SDS011;60103;51.014;16.992;2022-10-16T15:36:48;11.40;;;4.70;;
72198;SDS011;60103;51.014;16.992;2022-10-16T15:39:17;10.40;;;4.80;;
72198;SDS011;60103;51.014;16.992;2022-10-16T15:41:46;10.60;;;5.80;;
72198;SDS011;60103;51.014;16.992;2022-10-16T15:44:17;10.40;;;5.40;;
72198;SDS011;60103;51.014;16.992;2022-10-16T15:46:46;13.80;;;5.80;;
72198;SDS011;60103;51.014;16.992;2022-10-16T15:49:14;11.90;;;6.20;;
72198;SDS011;60103;51.014;16.992;2022-10-16T15:51:42;11.30;;;5.50;;
72198;SDS011;60103;51.014;16.992;2022-10-16T15:54:09;10.20;;;5.40;;
72198;SDS011;60103;51.014;16.992;2022-10-16T15:56:40;16.00;;;5.90;;
72198;SDS011;60103;51.014;16.992;2022-10-16T15:59:10;14.40;;;6.60;;
72198;SDS011;60103;51.014;16.992;2022-10-16T16:01:44;14.10;;;6.90;;
72198;SDS011;60103;51.014;16.992;2022-10-16T16:04:11;12.60;;;7.00;;
72198;SDS011;60103;51.014;16.992;2022-10-16T16:06:59;13.80;;;7.20;;
72198;SDS011;60103;51.014;16.992;2022-10-16T16:09:31;13.80;;;7.30;;
72198;SDS011;60103;51.014;16.992;2022-10-16T16:11:58;15.10;;;7.50;;
72198;SDS011;60103;51.014;16.992;2022-10-16T16:14:28;13.00;;;7.60;;
72198;SDS011;60103;51.014;16.992;2022-10-16T16:16:56;16.20;;;8.20;;
72198;SDS011;60103;51.014;16.992;2022-10-16T16:19:30;16.50;;;7.50;;
72198;SDS011;60103;51.014;16.992;2022-10-16T16:21:58;14.20;;;7.60;;
72198;SDS011;60103;51.014;16.992;2022-10-16T16:24:26;16.70;;;8.20;;
72198;SDS011;60103;51.014;16.992;2022-10-16T16:26:54;18.20;;;8.80;;
72198;SDS011;60103;51.014;16.992;2022-10-16T16:29:26;14.10;;;7.50;;
72198;SDS011;60103;51.014;16.992;2022-10-16T16:31:54;14.20;;;7.30;;
72198;SDS011;60103;51.014;16.992;2022-10-16T16:34:24;14.50;;;7.40;;
72198;SDS011;60103;51.014;16.992;2022-10-16T16:36:53;14.10;;;6.70;;
72198;SDS011;60103;51.014;16.992;2022-10-16T16:39:23;14.00;;;7.00;;
72198;SDS011;60103;51.014;16.992;2022-10-16T16:41:55;16.20;;;6.80;;
72198;SDS011;60103;51.014;16.992;2022-10-16T16:44:25;14.90;;;7.70;;
72198;SDS011;60103;51.014;16.992;2022-10-16T16:46:54;12.90;;;6.70;;
72198;SDS011;60103;51.014;16.992;2022-10-16T16:49:21;15.30;;;8.10;;
72198;SDS011;60103;51.014;16.992;2022-10-16T16:51:49;18.30;;;9.20;;
72198;SDS011;60103;51.014;16.992;2022-10-16T16:54:18;16.30;;;8.50;;
72198;SDS011;60103;51.014;16.992;2022-10-16T16:56:46;15.40;;;8.90;;
72198;SDS011;60103;51.014;16.992;2022-10-16T16:59:14;17.20;;;8.50;;
72198;SDS011;60103;51.014;16.992;2022-10-16T17:01:43;14.90;;;8.40;;
72198;SDS011;60103;51.014;16.992;2022-10-16T17:04:16;15.40;;;8.50;;
72198;SDS011;60103;51.014;16.992;2022-10-16T17:06:44;14.80;;;8.00;;
72198;SDS011;60103;51.014;16.992;2022-10-16T17:09:12;16.50;;;9.00;;
72198;SDS011;60103;51.014;16.992;2022-10-16T17:11:41;16.70;;;8.10;;